KLEX Airport Diagram

We have created a template for each of the higher traffic airports in the vZID airspace. They include KCMH, KCRW, KCVG, KDAY, KIND, KLEX and KSDF. You wil find usefull information including the airport diagram, weather, and specific airport procedures.

KLEX Weather

[Source: ADDS]
METAR
KLEX 191354Z 24005KT 5SM BR OVC007 09/08 A3008 RMK AO2 SLP188 T00940078 =
TAF
KLEX 191350Z 1914/2012 25005KT 6SM BR OVC009 TEMPO 1917/1918 6SM BR OVC011 FM191800 26004KT P6SM OVC012 FM200000 VRB03KT P6SM SCT015 SCT200 TEMPO 2000/2003 BKN015 FM200600 VRB03KT 4SM BR BKN200 =
JSN Epic template designed by JoomlaShine.com